Time;durP1;ratioP1;P1;durP2;ratioP2;P2;SDS_P1;SDS_P2;PMS_P1;PMS_P2;Temp;Humidity;BMP_temperature;BMP_pressure;BME280_temperature;BME280_humidity;BME280_pressure;Samples;Min_cycle;Max_cycle;Signal;HPM_P1;HPM_P2
2024/02/11 00:00:27;;;;;;;10.10;9.10;;;11.60;99.90;;;;;;10401336;28;20660;-64
2024/02/11 00:05:32;;;;;;;9.95;8.88;;;11.50;99.90;;;;;;10377915;28;20278;-64
2024/02/11 00:10:36;;;;;;;10.23;9.32;;;11.50;99.90;;;;;;10412144;28;20266;-65
2024/02/11 00:15:40;;;;;;;10.13;9.13;;;11.50;99.90;;;;;;10416382;28;20247;-66
2024/02/11 00:20:45;;;;;;;9.73;8.68;;;11.40;99.90;;;;;;10400168;28;20282;-64
2024/02/11 00:25:51;;;;;;;11.70;10.05;;;11.30;99.90;;;;;;10408764;28;20238;-65
2024/02/11 00:30:55;;;;;;;12.25;8.88;;;11.20;99.90;;;;;;10406426;28;20576;-65
2024/02/11 00:36:01;;;;;;;10.95;9.77;;;11.20;99.90;;;;;;10407348;28;20228;-64
2024/02/11 00:41:05;;;;;;;10.60;9.70;;;11.20;99.90;;;;;;10408950;28;20207;-64
2024/02/11 00:46:08;;;;;;;14.00;11.70;;;11.10;99.90;;;;;;10411488;28;20216;-65
2024/02/11 00:51:13;;;;;;;13.68;11.95;;;11.10;99.90;;;;;;10415503;28;20671;-65
2024/02/11 00:56:18;;;;;;;12.38;10.57;;;11.00;99.90;;;;;;10413584;28;20274;-65
2024/02/11 01:01:22;;;;;;;11.90;10.80;;;11.00;99.90;;;;;;10409331;28;20617;-63
2024/02/11 01:06:27;;;;;;;12.52;10.02;;;11.00;99.90;;;;;;10410956;28;20223;-64
2024/02/11 01:11:31;;;;;;;11.63;9.73;;;11.00;99.90;;;;;;10409315;28;20200;-63
2024/02/11 01:16:35;;;;;;;11.70;10.50;;;10.90;99.90;;;;;;10408617;28;20285;-63
2024/02/11 01:21:40;;;;;;;14.45;11.20;;;10.90;99.90;;;;;;10412312;28;20231;-64
2024/02/11 01:26:44;;;;;;;13.77;11.70;;;10.80;99.90;;;;;;10413230;28;20624;-64
2024/02/11 01:31:47;;;;;;;13.18;10.95;;;10.80;99.90;;;;;;10415676;28;20259;-63
2024/02/11 01:36:52;;;;;;;12.55;11.25;;;10.90;99.90;;;;;;10411286;28;20231;-65
2024/02/11 01:41:56;;;;;;;11.40;10.27;;;10.90;99.90;;;;;;10412897;28;20235;-64
2024/02/11 01:47:02;;;;;;;12.45;11.15;;;10.80;99.90;;;;;;10405224;28;20725;-64
2024/02/11 01:52:08;;;;;;;11.80;10.57;;;10.90;99.90;;;;;;10406729;28;20207;-65
2024/02/11 01:57:11;;;;;;;12.80;11.32;;;10.80;99.90;;;;;;10411026;28;20216;-64
2024/02/11 02:02:20;;;;;;;12.52;11.00;;;10.80;99.90;;;;;;10404818;28;20228;-64
2024/02/11 02:07:25;;;;;;;12.52;10.88;;;10.80;99.90;;;;;;10411667;28;20196;-64
2024/02/11 02:12:29;;;;;;;12.25;11.00;;;10.80;99.90;;;;;;10413417;28;20270;-66
2024/02/11 02:17:32;;;;;;;12.65;11.45;;;10.80;99.90;;;;;;10448615;28;20731;-65
2024/02/11 02:22:38;;;;;;;12.93;11.70;;;10.80;99.90;;;;;;10418432;28;20232;-64
2024/02/11 02:27:41;;;;;;;12.32;11.13;;;10.80;99.90;;;;;;10419924;28;20219;-65
2024/02/11 02:32:45;;;;;;;12.18;11.05;;;10.80;99.90;;;;;;10423661;28;20228;-64
2024/02/11 02:37:52;;;;;;;13.75;12.43;;;10.80;99.90;;;;;;10420330;28;20252;-65
2024/02/11 02:42:57;;;;;;;14.57;12.38;;;10.80;99.90;;;;;;10417408;28;20278;-65
2024/02/11 02:48:01;;;;;;;14.00;12.48;;;10.80;99.90;;;;;;10424077;28;20613;-65
2024/02/11 02:53:07;;;;;;;13.13;11.82;;;10.80;99.90;;;;;;10415990;28;20240;-64
2024/02/11 02:58:13;;;;;;;12.18;10.82;;;10.80;99.90;;;;;;10409739;28;20200;-65
2024/02/11 03:03:18;;;;;;;15.48;12.52;;;10.80;99.90;;;;;;10411613;28;20216;-65
2024/02/11 03:08:23;;;;;;;14.10;11.77;;;10.70;99.90;;;;;;10415409;28;20683;-64
2024/02/11 03:13:27;;;;;;;14.13;12.20;;;10.70;99.90;;;;;;10420991;28;20224;-65
2024/02/11 03:18:30;;;;;;;13.05;11.75;;;10.70;99.90;;;;;;10415426;28;20227;-64
2024/02/11 03:23:37;;;;;;;13.38;12.10;;;10.70;99.90;;;;;;10406269;28;20224;-65
2024/02/11 03:28:41;;;;;;;13.43;11.77;;;10.70;99.90;;;;;;10410799;28;20979;-65
2024/02/11 03:33:45;;;;;;;14.73;13.32;;;10.70;99.90;;;;;;10410902;28;20809;-63
2024/02/11 03:38:50;;;;;;;14.87;13.37;;;10.70;99.90;;;;;;10409905;28;20204;-64
2024/02/11 03:43:53;;;;;;;14.77;13.38;;;10.70;99.90;;;;;;10407808;28;20779;-64
2024/02/11 03:48:58;;;;;;;13.88;12.55;;;10.70;99.90;;;;;;10419220;28;20383;-66
2024/02/11 03:54:04;;;;;;;13.50;12.20;;;10.70;99.90;;;;;;10421347;28;20238;-66
2024/02/11 03:59:10;;;;;;;14.10;12.68;;;10.80;99.90;;;;;;10413953;28;20218;-65
2024/02/11 04:04:14;;;;;;;13.05;11.82;;;10.80;99.90;;;;;;10413919;28;20234;-64
2024/02/11 04:09:28;;;;;;;13.20;11.63;;;10.80;99.90;;;;;;10420011;28;20204;-65
2024/02/11 04:14:32;;;;;;;13.93;12.05;;;10.80;99.90;;;;;;10414180;28;20228;-65
2024/02/11 04:19:36;;;;;;;11.75;10.65;;;10.90;99.90;;;;;;10407680;28;20632;-64
2024/02/11 04:24:45;;;;;;;12.68;9.93;;;10.90;99.90;;;;;;10411574;28;20662;-64
2024/02/11 04:29:49;;;;;;;11.20;9.95;;;10.90;99.90;;;;;;10413829;28;20208;-63
2024/02/11 04:34:53;;;;;;;9.98;8.98;;;10.90;99.90;;;;;;10403678;28;20259;-63
2024/02/11 04:39:58;;;;;;;10.40;9.38;;;10.90;99.90;;;;;;10410131;28;20569;-63
2024/02/11 04:45:05;;;;;;;10.05;9.05;;;10.90;99.90;;;;;;10414448;28;20217;-63
2024/02/11 04:50:11;;;;;;;11.00;9.53;;;10.90;99.90;;;;;;10411104;28;20207;-64
2024/02/11 04:55:18;;;;;;;10.18;8.68;;;10.90;99.90;;;;;;10406204;28;20247;-64
2024/02/11 05:00:25;;;;;;;9.80;8.80;;;10.90;99.90;;;;;;10402969;28;20258;-63
2024/02/11 05:05:30;;;;;;;9.38;7.85;;;10.90;99.90;;;;;;10417145;28;20269;-64
2024/02/11 05:10:37;;;;;;;8.90;8.00;;;10.90;99.90;;;;;;10406876;28;20262;-66
2024/02/11 05:15:42;;;;;;;9.20;7.63;;;10.90;99.90;;;;;;10413457;28;20287;-64
2024/02/11 05:20:46;;;;;;;8.40;7.35;;;10.90;99.90;;;;;;10407161;28;20249;-65
2024/02/11 05:25:51;;;;;;;8.93;8.10;;;10.90;99.90;;;;;;10399362;28;20290;-65
2024/02/11 05:30:55;;;;;;;8.75;7.90;;;10.90;99.90;;;;;;10404395;28;20639;-66
2024/02/11 05:36:04;;;;;;;9.00;8.10;;;10.90;99.90;;;;;;10401564;28;20259;-65
2024/02/11 05:41:10;;;;;;;8.83;7.90;;;10.90;99.90;;;;;;10407191;28;20251;-65
2024/02/11 05:46:14;;;;;;;9.32;7.93;;;10.90;99.90;;;;;;10420718;28;20216;-65
2024/02/11 05:51:18;;;;;;;9.25;7.60;;;10.90;99.90;;;;;;10415960;28;20231;-64
2024/02/11 05:56:22;;;;;;;8.60;7.75;;;11.00;99.90;;;;;;10494507;22;20249;-59
2024/02/11 06:01:26;;;;;;;8.75;6.80;;;11.00;99.90;;;;;;10490925;28;20210;-59
2024/02/11 06:06:30;;;;;;;8.80;7.20;;;11.00;99.90;;;;;;10484239;28;20265;-58
2024/02/11 06:11:35;;;;;;;8.35;7.25;;;11.10;99.90;;;;;;10490001;28;20203;-60
2024/02/11 06:16:38;;;;;;;6.68;5.82;;;11.10;99.90;;;;;;10479419;28;20255;-63
2024/02/11 06:21:44;;;;;;;6.07;5.10;;;11.20;99.90;;;;;;10486836;28;20210;-60
2024/02/11 06:26:50;;;;;;;5.80;5.10;;;11.20;99.90;;;;;;10491116;28;20222;-60
2024/02/11 06:31:54;;;;;;;5.60;5.10;;;11.30;99.90;;;;;;10480096;28;20199;-60
2024/02/11 06:36:57;;;;;;;5.50;4.90;;;11.30;99.90;;;;;;10494880;28;20224;-60
2024/02/11 06:42:03;;;;;;;5.38;4.90;;;11.40;99.90;;;;;;10480058;28;20199;-60
2024/02/11 06:47:08;;;;;;;3.92;3.53;;;11.40;99.90;;;;;;10481305;28;20211;-61
2024/02/11 06:52:12;;;;;;;2.72;2.40;;;11.40;99.90;;;;;;10483904;28;20255;-60
2024/02/11 06:57:17;;;;;;;3.22;2.47;;;11.40;99.90;;;;;;10488354;28;20222;-60
2024/02/11 07:02:21;;;;;;;1.73;1.63;;;11.30;99.90;;;;;;10477632;28;20264;-61
2024/02/11 07:07:28;;;;;;;1.73;1.45;;;11.30;99.90;;;;;;10481376;28;20195;-60
2024/02/11 07:12:33;;;;;;;1.50;1.40;;;11.20;99.90;;;;;;10480276;28;20215;-60
2024/02/11 07:17:41;;;;;;;3.33;2.40;;;11.10;99.90;;;;;;10486734;28;20709;-60
2024/02/11 07:22:45;;;;;;;3.50;2.78;;;11.00;99.90;;;;;;10475012;28;20214;-60
2024/02/11 07:27:51;;;;;;;5.63;5.03;;;10.80;99.90;;;;;;10484187;28;20199;-61
2024/02/11 07:32:54;;;;;;;7.10;6.40;;;10.70;99.90;;;;;;10480042;28;20478;-62
2024/02/11 07:37:58;;;;;;;8.23;6.45;;;10.60;99.90;;;;;;10476246;28;20314;-62
2024/02/11 07:43:03;;;;;;;7.55;6.18;;;10.60;99.90;;;;;;10479209;28;20575;-62
2024/02/11 07:48:08;;;;;;;8.60;5.13;;;10.60;99.90;;;;;;10481598;28;20224;-62
2024/02/11 07:53:12;;;;;;;6.70;4.88;;;10.70;99.90;;;;;;10484181;28;20258;-61
2024/02/11 07:58:17;;;;;;;6.82;4.65;;;10.70;99.90;;;;;;10483504;28;20242;-60
2024/02/11 08:03:20;;;;;;;6.78;4.53;;;10.60;99.90;;;;;;10484261;28;20244;-62
2024/02/11 08:08:27;;;;;;;6.25;4.10;;;10.60;99.90;;;;;;10477986;28;20262;-62
2024/02/11 08:13:33;;;;;;;10.00;3.50;;;10.60;99.90;;;;;;10484928;28;20223;-62
2024/02/11 08:18:37;;;;;;;7.60;3.40;;;10.60;99.90;;;;;;10466705;28;20781;-63
2024/02/11 08:23:41;;;;;;;6.95;3.00;;;10.50;99.90;;;;;;10479277;28;20304;-64
2024/02/11 08:28:46;;;;;;;10.45;3.30;;;10.50;99.90;;;;;;10476026;28;20280;-63
2024/02/11 08:33:50;;;;;;;12.07;3.65;;;10.50;99.90;;;;;;10467762;28;20269;-62
2024/02/11 08:38:54;;;;;;;11.48;4.10;;;10.50;99.90;;;;;;10473116;28;20222;-61
2024/02/11 08:43:59;;;;;;;12.27;3.90;;;10.40;99.90;;;;;;10476687;28;20735;-61
2024/02/11 08:49:03;;;;;;;12.80;4.32;;;10.40;99.90;;;;;;10476946;28;20195;-63
2024/02/11 08:54:07;;;;;;;10.38;4.57;;;10.40;99.90;;;;;;10480205;28;20223;-60
2024/02/11 08:59:13;;;;;;;12.97;4.53;;;10.40;99.90;;;;;;10480991;28;20258;-61
2024/02/11 09:04:17;;;;;;;11.18;4.65;;;10.40;99.90;;;;;;10488589;28;20260;-62
2024/02/11 09:09:25;;;;;;;8.30;4.77;;;10.40;99.90;;;;;;10480898;28;20249;-62
2024/02/11 09:14:36;;;;;;;7.87;4.30;;;10.40;99.90;;;;;;10479920;28;20218;-61
2024/02/11 09:19:40;;;;;;;11.63;4.70;;;10.40;99.90;;;;;;10490473;28;20770;-61
2024/02/11 09:24:43;;;;;;;11.45;4.90;;;10.40;99.90;;;;;;10488230;28;20718;-62
2024/02/11 09:29:48;;;;;;;8.37;4.30;;;10.40;99.90;;;;;;10488373;28;20198;-62
2024/02/11 09:34:53;;;;;;;12.70;4.75;;;10.40;99.90;;;;;;10482488;28;20214;-61
2024/02/11 09:39:57;;;;;;;11.85;5.35;;;10.40;99.90;;;;;;10487141;28;20763;-62
2024/02/11 09:45:05;;;;;;;9.97;5.30;;;10.50;99.90;;;;;;10487058;28;20276;-62
2024/02/11 09:50:12;;;;;;;13.75;5.60;;;10.50;99.90;;;;;;10481104;28;20261;-61
2024/02/11 09:55:18;;;;;;;9.40;5.22;;;10.50;99.90;;;;;;10480090;28;20235;-62
2024/02/11 10:00:24;;;;;;;7.82;4.43;;;10.60;99.90;;;;;;10479275;28;20215;-62
2024/02/11 10:05:29;;;;;;;7.72;4.85;;;10.60;99.90;;;;;;10484467;28;20222;-61
2024/02/11 10:10:33;;;;;;;6.85;5.00;;;10.60;99.90;;;;;;10477894;28;20213;-61
2024/02/11 10:15:40;;;;;;;10.32;5.00;;;10.70;99.90;;;;;;10484305;28;20223;-61
2024/02/11 10:20:46;;;;;;;11.90;5.07;;;10.70;99.90;;;;;;10478076;28;20876;-62
2024/02/11 10:25:50;;;;;;;7.75;4.80;;;10.70;99.90;;;;;;10485131;28;20223;-61
2024/02/11 10:30:57;;;;;;;10.88;5.80;;;10.80;99.90;;;;;;10481386;28;20195;-62
2024/02/11 10:36:01;;;;;;;12.00;5.60;;;10.80;99.90;;;;;;10476820;28;20773;-63
2024/02/11 10:41:06;;;;;;;9.80;6.15;;;10.90;99.90;;;;;;10478640;28;20207;-63
2024/02/11 10:46:11;;;;;;;9.10;5.20;;;10.90;99.90;;;;;;10479941;28;20622;-62
2024/02/11 10:51:23;;;;;;;13.93;5.50;;;11.00;99.90;;;;;;10483404;28;20220;-63
2024/02/11 10:56:28;;;;;;;10.50;5.97;;;11.00;99.90;;;;;;10477285;28;20248;-63
2024/02/11 11:01:38;;;;;;;8.20;5.25;;;11.00;99.90;;;;;;10472955;28;20663;-62
2024/02/11 11:06:42;;;;;;;12.18;5.07;;;11.10;99.90;;;;;;10477046;28;20214;-62
2024/02/11 11:11:45;;;;;;;9.50;5.22;;;11.20;99.90;;;;;;10478471;28;20403;-62
2024/02/11 11:16:52;;;;;;;10.13;5.75;;;11.20;99.90;;;;;;10479072;28;20215;-62
2024/02/11 11:21:58;;;;;;;11.38;5.40;;;11.20;99.90;;;;;;10476485;28;20878;-62
2024/02/11 11:27:04;;;;;;;8.73;5.00;;;11.30;99.90;;;;;;10480776;28;20242;-62
2024/02/11 11:32:11;;;;;;;9.85;4.68;;;11.30;99.90;;;;;;10478361;28;20195;-61
2024/02/11 11:37:15;;;;;;;9.68;3.90;;;11.40;99.90;;;;;;10473146;28;20233;-61
2024/02/11 11:42:19;;;;;;;9.82;4.55;;;11.50;99.90;;;;;;10477117;28;20249;-64
2024/02/11 11:47:24;;;;;;;11.27;4.63;;;11.60;99.90;;;;;;10484818;28;20218;-62
2024/02/11 11:52:29;;;;;;;7.53;3.53;;;11.60;99.90;;;;;;10484143;28;20256;-59
2024/02/11 11:57:32;;;;;;;7.22;3.95;;;11.80;99.90;;;;;;10485636;28;20219;-61
2024/02/11 12:02:39;;;;;;;9.68;4.07;;;11.80;99.90;;;;;;10473754;28;20195;-62
2024/02/11 12:07:43;;;;;;;8.20;3.50;;;11.80;99.90;;;;;;10480175;22;20227;-66
2024/02/11 12:12:47;;;;;;;9.50;3.38;;;11.80;99.90;;;;;;10432781;28;20272;-64
2024/02/11 12:17:52;;;;;;;9.32;3.20;;;11.80;99.90;;;;;;10435561;28;20590;-64
2024/02/11 12:22:56;;;;;;;7.78;3.63;;;11.70;99.90;;;;;;10442826;28;20263;-61
2024/02/11 12:27:59;;;;;;;8.13;3.40;;;11.70;99.90;;;;;;10434441;28;20301;-62
2024/02/11 12:33:06;;;;;;;5.35;2.90;;;11.80;99.90;;;;;;10436682;28;20208;-62
2024/02/11 12:38:10;;;;;;;7.07;3.20;;;11.80;99.90;;;;;;10433741;28;20251;-62
2024/02/11 12:43:15;;;;;;;6.60;3.38;;;11.80;99.90;;;;;;10434538;28;20679;-62
2024/02/11 12:48:20;;;;;;;7.35;2.83;;;11.80;99.90;;;;;;10440109;28;20690;-65
2024/02/11 12:53:24;;;;;;;7.78;3.50;;;11.80;99.90;;;;;;10433834;28;20822;-67
2024/02/11 12:58:28;;;;;;;8.43;3.63;;;11.90;99.90;;;;;;10430424;28;20316;-69
2024/02/11 13:03:33;;;;;;;8.70;3.20;;;11.90;99.90;;;;;;10426998;28;20292;-62
2024/02/11 13:08:39;;;;;;;7.30;3.28;;;12.00;99.80;;;;;;10429759;28;20285;-63
2024/02/11 13:13:43;;;;;;;6.95;3.50;;;12.00;99.90;;;;;;10433897;28;20199;-63
2024/02/11 13:18:50;;;;;;;7.47;3.00;;;12.10;99.80;;;;;;10433687;28;20320;-62
2024/02/11 13:23:54;;;;;;;6.43;3.50;;;12.30;99.90;;;;;;10433763;28;20261;-62
2024/02/11 13:28:57;;;;;;;5.30;3.30;;;12.50;99.60;;;;;;10435595;28;20820;-62
2024/02/11 13:34:03;;;;;;;5.95;2.75;;;12.60;99.20;;;;;;10433045;28;20261;-63
2024/02/11 13:39:07;;;;;;;6.20;2.78;;;12.70;99.40;;;;;;10429865;28;20232;-63
2024/02/11 13:44:10;;;;;;;5.40;2.75;;;12.80;99.10;;;;;;10435153;28;20208;-63
2024/02/11 13:49:15;;;;;;;4.78;2.80;;;12.80;98.80;;;;;;10434800;28;20685;-63
2024/02/11 13:54:19;;;;;;;5.53;2.58;;;12.70;98.20;;;;;;10432493;28;20200;-64
2024/02/11 13:59:23;;;;;;;7.55;2.80;;;12.70;98.80;;;;;;10429388;28;20259;-63
2024/02/11 14:04:28;;;;;;;6.60;2.60;;;12.70;98.30;;;;;;10440430;28;20228;-63
2024/02/11 14:09:32;;;;;;;4.93;2.20;;;12.70;98.60;;;;;;10436500;28;20317;-64
2024/02/11 14:14:39;;;;;;;7.22;3.17;;;12.60;98.40;;;;;;10440248;28;20203;-62
2024/02/11 14:19:44;;;;;;;4.25;2.50;;;12.60;98.40;;;;;;10438428;28;20312;-62
2024/02/11 14:24:47;;;;;;;6.68;2.70;;;12.60;98.70;;;;;;10441223;28;20204;-64
2024/02/11 14:29:51;;;;;;;8.90;2.40;;;12.60;98.10;;;;;;10444259;28;20273;-62
2024/02/11 14:34:57;;;;;;;4.07;2.17;;;12.60;98.30;;;;;;10446038;28;20223;-62
2024/02/11 14:40:01;;;;;;;5.40;2.60;;;12.60;98.10;;;;;;10442949;28;20235;-64
2024/02/11 14:45:07;;;;;;;6.82;2.97;;;12.60;98.40;;;;;;10442656;28;20208;-64
2024/02/11 14:50:12;;;;;;;6.07;2.13;;;12.60;98.30;;;;;;10443462;28;20289;-66
2024/02/11 14:55:17;;;;;;;5.68;2.80;;;12.60;98.30;;;;;;10443532;28;20276;-62
2024/02/11 15:00:24;;;;;;;5.13;2.65;;;12.50;98.50;;;;;;10442462;28;20219;-64
2024/02/11 15:05:31;;;;;;;4.95;2.85;;;12.50;98.20;;;;;;10441037;28;20220;-65
2024/02/11 15:10:34;;;;;;;5.18;2.50;;;12.50;98.40;;;;;;10439209;28;20710;-63
2024/02/11 15:15:38;;;;;;;5.50;2.53;;;12.40;98.40;;;;;;10439493;28;20196;-62
2024/02/11 15:20:43;;;;;;;4.35;1.90;;;12.40;98.30;;;;;;10446436;28;20219;-62
2024/02/11 15:25:49;;;;;;;3.67;1.58;;;12.30;98.40;;;;;;10444745;28;20230;-62
2024/02/11 15:30:53;;;;;;;5.85;2.22;;;12.30;97.40;;;;;;10442995;28;20220;-62
2024/02/11 15:35:58;;;;;;;4.25;2.08;;;12.20;97.60;;;;;;10440391;28;20231;-61
2024/02/11 15:41:02;;;;;;;5.50;1.75;;;12.20;97.50;;;;;;10437625;28;20282;-61
2024/02/11 15:46:06;;;;;;;3.55;1.45;;;12.10;97.60;;;;;;10435072;28;21012;-63
2024/02/11 15:51:13;;;;;;;5.38;1.80;;;12.10;97.60;;;;;;10442261;28;20305;-62
2024/02/11 15:56:17;;;;;;;3.78;1.98;;;12.10;97.20;;;;;;10441428;28;20663;-63
2024/02/11 16:01:23;;;;;;;4.05;2.00;;;12.10;97.20;;;;;;10437865;28;20254;-62
2024/02/11 16:06:28;;;;;;;2.92;1.50;;;12.10;97.50;;;;;;10435009;28;20191;-63
2024/02/11 16:11:32;;;;;;;2.05;1.35;;;12.00;96.30;;;;;;10434914;28;20201;-61
2024/02/11 16:16:37;;;;;;;2.40;1.30;;;12.00;96.70;;;;;;10436223;28;20245;-62
2024/02/11 16:21:42;;;;;;;3.83;1.55;;;11.90;96.80;;;;;;10442252;28;20204;-61
2024/02/11 16:26:46;;;;;;;3.60;0.88;;;11.90;97.10;;;;;;10430817;28;20266;-61
2024/02/11 16:31:49;;;;;;;2.45;1.08;;;11.90;96.80;;;;;;10437556;28;20200;-62
2024/02/11 16:36:54;;;;;;;1.10;0.73;;;11.90;97.20;;;;;;10432505;28;20294;-61
2024/02/11 16:41:58;;;;;;;1.33;0.90;;;11.90;96.30;;;;;;10440000;28;20224;-62
2024/02/11 16:47:02;;;;;;;3.15;1.00;;;11.80;96.20;;;;;;10432038;28;20574;-61
2024/02/11 16:52:07;;;;;;;2.88;1.02;;;11.70;96.50;;;;;;10439758;28;20260;-60
2024/02/11 16:57:11;;;;;;;2.85;1.17;;;11.70;96.60;;;;;;10436347;28;20290;-62
2024/02/11 17:02:15;;;;;;;1.92;1.10;;;11.60;96.80;;;;;;10433794;28;20250;-61
2024/02/11 17:07:20;;;;;;;3.78;1.80;;;11.60;96.90;;;;;;10438735;28;20780;-60
2024/02/11 17:12:23;;;;;;;3.50;1.33;;;11.60;96.90;;;;;;10437134;28;20670;-59
2024/02/11 17:17:27;;;;;;;2.53;1.58;;;11.60;97.00;;;;;;10433625;28;20232;-60
2024/02/11 17:22:32;;;;;;;4.25;2.55;;;11.50;97.00;;;;;;10443050;28;20277;-60
2024/02/11 17:27:37;;;;;;;4.15;2.00;;;11.50;97.00;;;;;;10440831;28;20274;-60
2024/02/11 17:32:41;;;;;;;2.60;1.85;;;11.40;97.00;;;;;;10431805;28;20651;-61
